Sublime, Texas
Current Conditions -  °F | °C
As of 6:15 AM on Friday 28 Nov 2014 (Local Time) from K66R Reporting Station
Clear Clear  
Wind Chill: 41°   Ceiling: Unl
Heat Index: 41°   Visibility: 10mi
Dew Point: 39°   Wind: 0mph
Humidity: 91%   Direction: NA
Pressure: 30.33"   Gusts: NA
Location:  29.48°N, 96.8°W
Report Text: K66R 281215Z AUTO 00000KT 10SM CLR 05/04 A3033 RMK AO2 T00520038
Loading
Personal Weather Stations






























Interactive Weather Map New forecast layout! Learn more

10-Day Weather Forecast

Advertisements
Track Severe Weather on mobile